Time;durP1;ratioP1;P1;durP2;ratioP2;P2;SDS_P1;SDS_P2;PMS_P1;PMS_P2;Temp;Humidity;BMP_temperature;BMP_pressure;BME280_temperature;BME280_humidity;BME280_pressure;Samples;Min_cycle;Max_cycle;Signal;HPM_P1;HPM_P2
2023/04/22 00:02:15;;;;;;;;;;;;;;;18.65;41.44;100502.44;4953778;28;126188;-68
2023/04/22 00:04:42;;;;;;;;;;;;;;;18.63;41.39;100501.97;4922659;28;97847;-67
2023/04/22 00:07:08;;;;;;;;;;;;;;;18.62;41.55;100499.53;4917008;28;98359;-68
2023/04/22 00:09:35;;;;;;;;;;;;;;;18.59;41.53;100492.81;4967755;27;100047;-67
2023/04/22 00:12:01;;;;;;;;;;;;;;;18.58;41.46;100496.66;4957956;28;97946;-67
2023/04/22 00:14:27;;;;;;;;;;;;;;;18.54;41.64;100495.69;4940425;27;99142;-67
2023/04/22 00:16:53;;;;;;;;;;;;;;;18.52;41.46;100495.22;4959854;28;98230;-67
2023/04/22 00:19:20;;;;;;;;;;;;;;;18.50;41.63;100491.97;4957360;27;131185;-68
2023/04/22 00:21:46;;;;;;;;;;;;;;;18.48;41.73;100490.72;4943877;27;98259;-68
2023/04/22 00:24:12;;;;;;;;;;;;;;;18.47;41.57;100486.34;4969914;27;112596;-67
2023/04/22 00:26:38;;;;;;;;;;;;;;;18.44;41.68;100485.09;4957793;28;106828;-67
2023/04/22 00:29:04;;;;;;;;;;;;;;;18.43;41.65;100482.66;4967547;27;124332;-68
2023/04/22 00:31:30;;;;;;;;;;;;;;;18.40;41.65;100479.47;4955789;28;98267;-68
2023/04/22 00:33:56;;;;;;;;;;;;;;;18.37;41.80;100477.38;4954775;27;98239;-67
2023/04/22 00:36:22;;;;;;;;;;;;;;;18.35;41.45;100476.91;4969606;27;112246;-68
2023/04/22 00:38:49;;;;;;;;;;;;;;;18.34;41.68;100471.75;4957416;28;121366;-67
2023/04/22 00:41:16;;;;;;;;;;;;;;;18.32;41.50;100474.00;4957956;27;97942;-67
2023/04/22 00:43:42;;;;;;;;;;;;;;;18.30;41.82;100477.03;4941347;28;106421;-68
2023/04/22 00:46:08;;;;;;;;;;;;;;;18.27;41.61;100477.66;4944315;27;98098;-67
2023/04/22 00:48:36;;;;;;;;;;;;;;;18.26;41.64;100469.81;4941729;28;98288;-68
2023/04/22 00:51:02;;;;;;;;;;;;;;;18.24;41.77;100469.34;4959585;28;98108;-67
2023/04/22 00:53:27;;;;;;;;;;;;;;;18.22;41.66;100463.38;4970390;27;107660;-68
2023/04/22 00:55:53;;;;;;;;;;;;;;;18.19;41.71;100464.00;4960946;28;118823;-68
2023/04/22 00:58:20;;;;;;;;;;;;;;;18.17;41.72;100466.28;4961422;27;98143;-68
2023/04/22 01:00:46;;;;;;;;;;;;;;;18.15;41.63;100469.31;4962301;27;98125;-68
2023/04/22 01:03:12;;;;;;;;;;;;;;;18.13;41.67;100460.66;4942156;27;99745;-68
2023/04/22 01:05:38;;;;;;;;;;;;;;;18.11;41.58;100460.16;4971265;27;118286;-68
2023/04/22 01:08:04;;;;;;;;;;;;;;;18.09;41.70;100463.19;4969570;27;98299;-68
2023/04/22 01:10:30;;;;;;;;;;;;;;;18.06;41.61;100463.84;4926715;28;98168;-68
2023/04/22 01:12:56;;;;;;;;;;;;;;;18.05;41.73;100461.44;4916470;28;127390;-68
2023/04/22 01:15:22;;;;;;;;;;;;;;;18.03;41.77;100458.19;4942311;28;116618;-69
2023/04/22 01:17:48;;;;;;;;;;;;;;;18.01;41.68;100464.00;4920157;28;99563;-68
2023/04/22 01:20:14;;;;;;;;;;;;;;;17.99;41.84;100458.03;4952904;28;107105;-68
2023/04/22 01:22:41;;;;;;;;;;;;;;;17.97;41.76;100459.50;4923838;28;98136;-68
2023/04/22 01:25:08;;;;;;;;;;;;;;;17.95;41.75;100454.34;4926618;28;98603;-68
2023/04/22 01:27:35;;;;;;;;;;;;;;;17.92;41.80;100452.25;4919523;28;118366;-68
2023/04/22 01:30:01;;;;;;;;;;;;;;;17.91;41.69;100459.63;4953699;28;98394;-67
2023/04/22 01:32:29;;;;;;;;;;;;;;;17.88;41.80;100449.38;4939893;28;117631;-67
2023/04/22 01:34:55;;;;;;;;;;;;;;;17.87;41.65;100461.38;4927009;28;98599;-67
2023/04/22 01:37:21;;;;;;;;;;;;;;;17.85;41.73;100449.19;4921814;28;98023;-67
2023/04/22 01:39:47;;;;;;;;;;;;;;;17.83;41.61;100445.97;4934023;28;108516;-67
2023/04/22 01:42:13;;;;;;;;;;;;;;;17.82;41.68;100450.63;4954114;28;98368;-68
2023/04/22 01:44:40;;;;;;;;;;;;;;;17.80;41.82;100452.88;4924547;28;97931;-67
2023/04/22 01:47:06;;;;;;;;;;;;;;;17.78;41.72;100446.13;4921238;28;117314;-68
2023/04/22 01:49:32;;;;;;;;;;;;;;;17.74;41.53;100454.09;4938514;28;98169;-68
2023/04/22 01:51:58;;;;;;;;;;;;;;;17.70;41.69;100446.88;4931089;28;127725;-68
2023/04/22 01:54:25;;;;;;;;;;;;;;;17.66;41.54;100450.22;4941768;28;97953;-67
2023/04/22 01:56:52;;;;;;;;;;;;;;;17.61;41.51;100450.34;4923642;28;98916;-67
2023/04/22 01:59:19;;;;;;;;;;;;;;;17.58;41.69;100448.25;4919227;28;99582;-68
2023/04/22 02:01:45;;;;;;;;;;;;;;;17.54;41.66;100441.03;4934795;28;98037;-68
2023/04/22 02:04:11;;;;;;;;;;;;;;;17.51;41.81;100447.09;4925616;28;98094;-68
2023/04/22 02:06:37;;;;;;;;;;;;;;;17.49;41.85;100435.69;4923656;28;131431;-69
2023/04/22 02:09:03;;;;;;;;;;;;;;;17.46;41.77;100442.59;4930048;28;98126;-68
2023/04/22 02:11:29;;;;;;;;;;;;;;;17.42;41.86;100436.97;4968569;27;116091;-68
2023/04/22 02:13:55;;;;;;;;;;;;;;;17.39;41.88;100426.69;4958490;28;117738;-68
2023/04/22 02:16:22;;;;;;;;;;;;;;;17.37;41.88;100433.56;4960718;27;99334;-68
2023/04/22 02:18:48;;;;;;;;;;;;;;;17.35;41.67;100433.88;4950789;27;98318;-68
2023/04/22 02:21:14;;;;;;;;;;;;;;;17.32;41.86;100425.53;4970147;27;98243;-68
2023/04/22 02:23:40;;;;;;;;;;;;;;;17.30;41.87;100422.34;4970645;27;98036;-69
2023/04/22 02:26:06;;;;;;;;;;;;;;;17.27;41.92;100420.22;4940433;28;111508;-68
2023/04/22 02:28:32;;;;;;;;;;;;;;;17.24;41.77;100426.28;4971822;27;97990;-69
2023/04/22 02:30:59;;;;;;;;;;;;;;;17.23;41.83;100424.69;4961680;27;98541;-68
2023/04/22 02:33:25;;;;;;;;;;;;;;;17.20;41.87;100428.03;4985946;27;103156;-68
2023/04/22 02:35:51;;;;;;;;;;;;;;;17.17;41.83;100422.13;4970975;27;107044;-68
2023/04/22 02:38:17;;;;;;;;;;;;;;;17.16;41.89;100427.84;4958928;27;130508;-68
2023/04/22 02:40:43;;;;;;;;;;;;;;;17.14;41.69;100413.75;4983805;27;101603;-68
2023/04/22 02:43:09;;;;;;;;;;;;;;;17.10;41.90;100419.03;4970522;27;98096;-68
2023/04/22 02:45:35;;;;;;;;;;;;;;;17.08;41.72;100421.25;4938852;28;98012;-68
2023/04/22 02:48:01;;;;;;;;;;;;;;;17.06;41.76;100418.03;4971347;27;98297;-68
2023/04/22 02:50:27;;;;;;;;;;;;;;;17.05;41.77;100413.69;4960642;27;98091;-68
2023/04/22 02:52:53;;;;;;;;;;;;;;;17.02;41.86;100422.50;4942246;28;99780;-68
2023/04/22 02:55:20;;;;;;;;;;;;;;;17.01;41.84;100411.91;4961498;27;98140;-69
2023/04/22 02:57:46;;;;;;;;;;;;;;;16.98;41.74;100418.81;4945124;27;97787;-67
2023/04/22 03:00:13;;;;;;;;;;;;;;;16.97;42.12;100413.66;4968891;27;128328;-68
2023/04/22 03:02:39;;;;;;;;;;;;;;;16.95;41.84;100415.91;4960769;28;98137;-68
2023/04/22 03:05:05;;;;;;;;;;;;;;;16.93;41.85;100418.91;4959879;28;98533;-67
2023/04/22 03:07:31;;;;;;;;;;;;;;;16.89;41.80;100413.28;4959010;27;121391;-68
2023/04/22 03:09:57;;;;;;;;;;;;;;;16.87;41.80;100415.53;4972303;27;127385;-67
2023/04/22 03:12:24;;;;;;;;;;;;;;;16.85;41.79;100408.78;4970827;27;106696;-67
2023/04/22 03:14:50;;;;;;;;;;;;;;;16.84;41.78;100410.69;4960101;28;98394;-68
2023/04/22 03:17:16;;;;;;;;;;;;;;;16.82;41.79;100414.81;4938458;27;98208;-68
2023/04/22 03:19:42;;;;;;;;;;;;;;;16.79;41.89;100410.03;4972018;27;98169;-68
2023/04/22 03:22:08;;;;;;;;;;;;;;;16.77;42.00;100404.06;4970223;27;101751;-68
2023/04/22 03:24:34;;;;;;;;;;;;;;;16.75;41.95;100409.84;4952605;27;98343;-68
2023/04/22 03:27:00;;;;;;;;;;;;;;;16.73;41.98;100403.06;4937460;28;100421;-68
2023/04/22 03:29:26;;;;;;;;;;;;;;;16.70;41.88;100409.91;4971928;27;98893;-68
2023/04/22 03:31:52;;;;;;;;;;;;;;;16.67;41.79;100402.38;4971603;27;117527;-68
2023/04/22 03:34:18;;;;;;;;;;;;;;;16.66;41.85;100409.75;4974748;27;130321;-67
2023/04/22 03:36:44;;;;;;;;;;;;;;;16.64;41.71;100408.44;4947056;27;98021;-67
2023/04/22 03:39:10;;;;;;;;;;;;;;;16.62;41.76;100410.66;4970978;27;113137;-68
2023/04/22 03:41:36;;;;;;;;;;;;;;;16.60;41.84;100407.47;4959466;28;98000;-68
2023/04/22 03:44:02;;;;;;;;;;;;;;;16.59;41.98;100406.66;4957865;28;129058;-68
2023/04/22 03:46:28;;;;;;;;;;;;;;;16.56;42.00;100404.53;4957265;27;125960;-67
2023/04/22 03:48:54;;;;;;;;;;;;;;;16.54;41.79;100397.78;4973377;27;103901;-68
2023/04/22 03:51:20;;;;;;;;;;;;;;;16.53;41.83;100402.44;4953942;27;98142;-67
2023/04/22 03:53:46;;;;;;;;;;;;;;;16.52;41.87;100408.19;4958353;28;98059;-67
2023/04/22 03:56:12;;;;;;;;;;;;;;;16.50;41.90;100403.03;4942005;27;98124;-67
2023/04/22 03:58:38;;;;;;;;;;;;;;;16.49;41.90;100411.53;4941230;28;128431;-68
2023/04/22 04:01:04;;;;;;;;;;;;;;;16.47;41.82;100409.13;4974234;27;117971;-68
2023/04/22 04:03:30;;;;;;;;;;;;;;;16.44;41.96;100404.28;4941976;27;98108;-68
2023/04/22 04:05:56;;;;;;;;;;;;;;;16.44;41.72;100405.09;4956992;28;112929;-68
2023/04/22 04:08:22;;;;;;;;;;;;;;;16.44;41.96;100409.72;4940368;27;112841;-68
2023/04/22 04:10:48;;;;;;;;;;;;;;;16.42;41.86;100409.22;4956019;28;104498;-67
2023/04/22 04:13:14;;;;;;;;;;;;;;;16.42;41.99;100403.78;4937353;27;131125;-67
2023/04/22 04:15:39;;;;;;;;;;;;;;;16.42;41.77;100401.06;4941271;27;99648;-68
2023/04/22 04:18:05;;;;;;;;;;;;;;;16.41;41.86;100402.19;4958682;28;120399;-67
2023/04/22 04:20:31;;;;;;;;;;;;;;;16.40;41.87;100412.25;4960680;27;109093;-67
2023/04/22 04:22:57;;;;;;;;;;;;;;;16.40;41.71;100408.75;4958777;28;103253;-67
2023/04/22 04:25:23;;;;;;;;;;;;;;;16.40;41.92;100406.81;4945163;27;98209;-67
2023/04/22 04:27:50;;;;;;;;;;;;;;;16.40;41.87;100406.03;4955444;27;98464;-67
2023/04/22 04:30:16;;;;;;;;;;;;;;;16.39;41.86;100402.50;4961990;27;98939;-68
2023/04/22 04:32:44;;;;;;;;;;;;;;;16.41;41.71;100407.63;4959774;28;108575;-67
2023/04/22 04:35:12;;;;;;;;;;;;;;;16.41;41.75;100402.19;4966557;27;98870;-67
2023/04/22 04:37:39;;;;;;;;;;;;;;;16.42;41.82;100410.03;4940169;28;98079;-67
2023/04/22 04:40:09;;;;;;;;;;;;;;;16.43;41.84;100405.41;4972406;27;98253;-68
2023/04/22 04:42:36;;;;;;;;;;;;;;;16.43;41.86;100406.22;4973064;27;98494;-68
2023/04/22 04:45:02;;;;;;;;;;;;;;;16.45;41.90;100403.16;4961257;28;99269;-68
2023/04/22 04:47:28;;;;;;;;;;;;;;;16.46;41.75;100412.94;4977580;27;99173;-67
2023/04/22 04:49:57;;;;;;;;;;;;;;;16.48;41.68;100408.00;4961256;28;98028;-67
2023/04/22 04:52:23;;;;;;;;;;;;;;;16.51;41.60;100406.59;4970626;27;98368;-68
2023/04/22 04:54:49;;;;;;;;;;;;;;;16.53;41.56;100405.16;4942818;28;97994;-68
2023/04/22 04:57:15;;;;;;;;;;;;;;;16.56;41.51;100409.19;4959266;27;119242;-68
2023/04/22 04:59:41;;;;;;;;;;;;;;;16.58;41.60;100407.75;4954687;28;98280;-67
2023/04/22 05:02:07;;;;;;;;;;;;;;;16.62;41.77;100414.22;4973004;27;126441;-67
2023/04/22 05:04:33;;;;;;;;;;;;;;;16.67;41.52;100407.84;4958597;27;99508;-67
2023/04/22 05:06:59;;;;;;;;;;;;;;;16.71;41.64;100418.91;4958189;27;128358;-67
2023/04/22 05:09:25;;;;;;;;;;;;;;;16.75;41.41;100401.69;4970004;27;98517;-67
2023/04/22 05:11:51;;;;;;;;;;;;;;;16.79;41.27;100405.38;4921232;28;98292;-67
2023/04/22 05:14:17;;;;;;;;;;;;;;;16.85;41.60;100403.31;4915217;28;99300;-68
2023/04/22 05:16:42;;;;;;;;;;;;;;;16.89;41.46;100409.75;4946515;28;127596;-68
2023/04/22 05:19:08;;;;;;;;;;;;;;;16.95;41.49;100413.97;4916297;28;98124;-67
2023/04/22 05:21:34;;;;;;;;;;;;;;;17.00;41.29;100408.38;4917194;28;127788;-67
2023/04/22 05:24:00;;;;;;;;;;;;;;;17.05;41.52;100405.53;4935914;28;98397;-67
2023/04/22 05:26:26;;;;;;;;;;;;;;;17.12;41.25;100411.34;4917933;28;100005;-67
2023/04/22 05:28:52;;;;;;;;;;;;;;;17.18;41.35;100406.56;4921475;28;98054;-67
2023/04/22 05:31:18;;;;;;;;;;;;;;;17.25;41.26;100406.94;4934890;28;98182;-66
2023/04/22 05:33:45;;;;;;;;;;;;;;;17.33;41.18;100416.25;4934166;28;105840;-67
2023/04/22 05:36:11;;;;;;;;;;;;;;;17.42;41.30;100403.47;4930820;28;105775;-67
2023/04/22 05:38:37;;;;;;;;;;;;;;;17.53;41.06;100407.53;4936881;28;98598;-67
2023/04/22 05:41:03;;;;;;;;;;;;;;;17.65;41.00;100413.19;4918234;28;98565;-67
2023/04/22 05:43:29;;;;;;;;;;;;;;;17.77;41.02;100419.97;4930819;28;98307;-69
2023/04/22 05:45:55;;;;;;;;;;;;;;;17.86;41.05;100418.88;4919358;28;100101;-68
2023/04/22 05:48:21;;;;;;;;;;;;;;;17.98;40.85;100417.47;4935016;28;104099;-67
2023/04/22 05:50:47;;;;;;;;;;;;;;;18.11;40.88;100421.97;4920039;28;117075;-67
2023/04/22 05:53:13;;;;;;;;;;;;;;;18.28;40.72;100411.09;4931597;28;98398;-67
2023/04/22 05:55:39;;;;;;;;;;;;;;;18.47;40.72;100413.50;4930989;28;98172;-67
2023/04/22 05:58:05;;;;;;;;;;;;;;;18.69;40.86;100412.50;4932514;28;98206;-67
2023/04/22 06:00:31;;;;;;;;;;;;;;;18.93;40.72;100416.69;4936904;28;98334;-68
2023/04/22 06:02:58;;;;;;;;;;;;;;;19.13;40.43;100408.59;4935628;28;98257;-68
2023/04/22 06:05:24;;;;;;;;;;;;;;;19.34;40.33;100416.09;4919071;28;98587;-68
2023/04/22 06:07:50;;;;;;;;;;;;;;;19.54;40.41;100409.91;4939235;27;98447;-67
2023/04/22 06:10:16;;;;;;;;;;;;;;;19.74;40.39;100410.31;4969128;27;116200;-68
2023/04/22 06:12:42;;;;;;;;;;;;;;;19.92;40.13;100411.00;4955718;27;109440;-68
2023/04/22 06:15:09;;;;;;;;;;;;;;;20.11;40.23;100411.38;4973636;27;97961;-68
2023/04/22 06:17:35;;;;;;;;;;;;;;;20.31;40.14;100416.03;4960417;27;98665;-68
2023/04/22 06:20:01;;;;;;;;;;;;;;;;;;4975801;27;102822;-68
2023/04/22 06:22:27;;;;;;;;;;;;;;;20.73;40.05;100415.25;4977207;27;99973;-67
2023/04/22 06:24:53;;;;;;;;;;;;;;;20.92;39.92;100412.81;4970677;27;98365;-68
2023/04/22 06:27:19;;;;;;;;;;;;;;;21.12;39.90;100416.63;4958064;27;98499;-69
2023/04/22 06:29:45;;;;;;;;;;;;;;;21.33;39.88;100417.38;4956246;27;98178;-67
2023/04/22 06:32:11;;;;;;;;;;;;;;;21.54;39.76;100416.50;4938267;27;102804;-67
2023/04/22 06:34:37;;;;;;;;;;;;;;;21.77;39.64;100414.06;4958059;27;98258;-68
2023/04/22 06:37:03;;;;;;;;;;;;;;;21.98;39.75;100414.75;4972068;27;98497;-67
2023/04/22 06:39:29;;;;;;;;;;;;;;;22.22;39.48;100413.94;4960664;27;98658;-68
2023/04/22 06:41:55;;;;;;;;;;;;;;;22.45;39.51;100408.72;4954814;27;98106;-68
2023/04/22 06:44:21;;;;;;;;;;;;;;;22.72;39.24;100409.88;4959179;27;106674;-68
2023/04/22 06:46:47;;;;;;;;;;;;;;;23.00;39.44;100409.88;4960954;27;98560;-68
2023/04/22 06:49:13;;;;;;;;;;;;;;;23.30;39.25;100411.38;4944766;27;100226;-68
2023/04/22 06:51:39;;;;;;;;;;;;;;;23.59;39.16;100412.91;4959926;27;115807;-67
2023/04/22 06:54:05;;;;;;;;;;;;;;;23.87;38.81;100413.59;4972492;27;98418;-69
2023/04/22 06:56:31;;;;;;;;;;;;;;;24.15;38.79;100415.38;4943086;27;100700;-69
2023/04/22 06:58:57;;;;;;;;;;;;;;;24.41;38.88;100415.59;4941098;27;99813;-69
2023/04/22 07:01:23;;;;;;;;;;;;;;;24.68;38.65;100419.28;4969597;27;122161;-69
2023/04/22 07:03:49;;;;;;;;;;;;;;;24.95;38.52;100414.66;4936472;27;116013;-69
2023/04/22 07:06:15;;;;;;;;;;;;;;;25.24;38.58;100412.47;4955998;27;98210;-69
2023/04/22 07:08:41;;;;;;;;;;;;;;;25.49;38.37;100418.38;4931170;28;112803;-69
2023/04/22 07:11:09;;;;;;;;;;;;;;;25.77;38.31;100414.47;4957054;28;98701;-70
2023/04/22 07:13:35;;;;;;;;;;;;;;;26.02;38.33;100412.13;4948790;27;98876;-69
2023/04/22 07:16:01;;;;;;;;;;;;;;;26.27;38.14;100417.97;4968389;27;98474;-69
2023/04/22 07:18:27;;;;;;;;;;;;;;;26.51;38.19;100408.44;4950865;27;131495;-69
2023/04/22 07:20:53;;;;;;;;;;;;;;;26.79;38.03;100414.28;4969165;27;98786;-69
2023/04/22 07:23:20;;;;;;;;;;;;;;;27.07;37.93;100410.22;4952424;27;98153;-69
2023/04/22 07:25:46;;;;;;;;;;;;;;;27.35;37.63;100412.47;4954693;28;98211;-69
2023/04/22 07:28:12;;;;;;;;;;;;;;;27.59;37.87;100403.59;4966083;27;99003;-69
2023/04/22 07:30:38;;;;;;;;;;;;;;;27.89;37.93;100413.69;4072012;27;10000678;-69
2023/04/22 07:33:04;;;;;;;;;;;;;;;28.20;37.59;100414.28;4965157;27;99552;-69
2023/04/22 07:35:30;;;;;;;;;;;;;;;28.48;37.46;100421.94;4953262;27;99472;-69
2023/04/22 07:37:56;;;;;;;;;;;;;;;28.78;37.67;100405.81;4968546;27;99341;-69
2023/04/22 07:40:22;;;;;;;;;;;;;;;29.15;37.16;100404.69;4956800;27;98182;-69
2023/04/22 07:42:48;;;;;;;;;;;;;;;29.55;37.13;100406.31;4932864;28;107402;-69
2023/04/22 07:45:14;;;;;;;;;;;;;;;29.80;36.77;100400.72;4952525;27;105162;-69
2023/04/22 07:47:41;;;;;;;;;;;;;;;29.99;36.94;100405.06;4954036;28;98486;-69
2023/04/22 07:50:07;;;;;;;;;;;;;;;30.19;37.11;100393.53;4933811;28;98027;-69
2023/04/22 07:52:33;;;;;;;;;;;;;;;30.40;36.91;100395.41;4966604;27;99539;-70
2023/04/22 07:55:00;;;;;;;;;;;;;;;30.66;37.08;100388.53;4955981;28;98215;-69
2023/04/22 07:57:26;;;;;;;;;;;;;;;30.94;36.73;100385.59;4934732;27;98092;-69
2023/04/22 07:59:52;;;;;;;;;;;;;;;31.30;36.70;100382.56;4956295;28;99946;-69
2023/04/22 08:02:18;;;;;;;;;;;;;;;31.78;36.46;100381.69;4973621;27;110116;-70
2023/04/22 08:04:44;;;;;;;;;;;;;;;32.49;36.17;100386.47;4970087;27;97930;-69
2023/04/22 08:07:10;;;;;;;;;;;;;;;33.33;35.41;100382.06;4939813;28;97858;-70
2023/04/22 08:09:37;;;;;;;;;;;;;;;34.04;35.14;100382.78;4942515;28;98429;-70
2023/04/22 08:12:03;;;;;;;;;;;;;;;34.77;34.66;100378.00;4924103;28;100095;-70
2023/04/22 08:14:29;;;;;;;;;;;;;;;35.49;34.58;100368.69;4921886;28;98283;-70
2023/04/22 08:16:55;;;;;;;;;;;;;;;36.12;34.54;100370.19;4933323;28;106698;-71
2023/04/22 08:19:21;;;;;;;;;;;;;;;36.81;34.33;100373.28;4918547;28;97939;-71
2023/04/22 08:21:47;;;;;;;;;;;;;;;37.54;34.30;100369.72;4915159;28;98103;-71
2023/04/22 08:24:13;;;;;;;;;;;;;;;38.28;33.86;100371.84;4921279;28;98035;-71
2023/04/22 08:26:39;;;;;;;;;;;;;;;39.04;33.63;100367.63;4921732;28;99397;-72
2023/04/22 08:29:06;;;;;;;;;;;;;;;39.87;33.15;100366.94;4938641;28;97924;-71
2023/04/22 08:31:32;;;;;;;;;;;;;;;40.64;32.86;100364.56;4921576;28;98139;-71
2023/04/22 08:33:58;;;;;;;;;;;;;;;41.34;32.89;100364.31;4915397;28;98300;-72
2023/04/22 08:36:26;;;;;;;;;;;;;;;42.05;32.83;100362.59;4938481;28;108177;-72
2023/04/22 08:38:53;;;;;;;;;;;;;;;42.80;32.24;100366.16;4922104;28;98060;-72
2023/04/22 08:41:20;;;;;;;;;;;;;;;43.49;32.27;100353.19;4922307;28;98342;-71
2023/04/22 08:43:46;;;;;;;;;;;;;;;44.05;32.31;100350.13;4922725;28;98926;-71
2023/04/22 08:46:14;;;;;;;;;;;;;;;44.55;32.08;100349.78;4935088;28;98631;-71
2023/04/22 08:48:40;;;;;;;;;;;;;;;45.30;31.91;100348.38;4922511;28;98321;-71
2023/04/22 08:51:07;;;;;;;;;;;;;;;46.06;31.50;100338.19;4923025;28;100029;-71
2023/04/22 08:53:33;;;;;;;;;;;;;;;46.65;31.59;100342.81;4921399;28;100896;-75
2023/04/22 08:55:59;;;;;;;;;;;;;;;47.07;31.64;100338.06;4939279;28;97851;-71
2023/04/22 08:58:26;;;;;;;;;;;;;;;47.60;31.07;100333.13;4921845;28;98447;-70
2023/04/22 09:00:53;;;;;;;;;;;;;;;48.03;31.23;100326.84;4916028;28;98210;-75
2023/04/22 09:03:19;;;;;;;;;;;;;;;48.71;30.81;100329.84;4915370;28;98532;-75
2023/04/22 09:05:45;;;;;;;;;;;;;;;49.36;30.47;100317.31;4935724;28;99310;-75
2023/04/22 09:08:11;;;;;;;;;;;;;;;49.80;30.18;100325.78;4926705;28;98346;-70
2023/04/22 09:10:37;;;;;;;;;;;;;;;50.14;30.48;100322.38;4969591;27;98489;-75
2023/04/22 09:13:05;;;;;;;;;;;;;;;50.40;30.63;100318.78;4958810;28;100071;-74
2023/04/22 09:15:31;;;;;;;;;;;;;;;50.83;30.10;100315.59;4934800;27;98084;-70
2023/04/22 09:17:57;;;;;;;;;;;;;;;51.30;30.19;100315.66;4936937;28;98168;-70
2023/04/22 09:20:29;;;;;;;;;;;;;;;51.04;30.60;100307.09;4971145;27;128330;-75
2023/04/22 09:22:56;;;;;;;;;;;;;;;50.43;30.90;100297.63;4955816;28;106847;-75
2023/04/22 09:25:23;;;;;;;;;;;;;;;50.03;31.35;100295.47;4937579;27;111904;-75
2023/04/22 09:27:51;;;;;;;;;;;;;;;49.81;31.90;100282.31;4941575;27;114807;-75
2023/04/22 09:30:21;;;;;;;;;;;;;;;50.03;31.64;100286.88;4958214;27;100087;-71
2023/04/22 09:32:57;;;;;;;;;;;;;;;50.40;31.11;100281.56;4957941;28;98236;-71
2023/04/22 09:35:27;;;;;;;;;;;;;;;50.88;30.50;100291.00;4973280;27;98247;-74
2023/04/22 09:37:54;;;;;;;;;;;;;;;50.84;30.63;100289.22;4976582;27;98689;-74
2023/04/22 09:40:20;;;;;;;;;;;;;;;51.21;29.83;100278.00;4941892;27;98519;-72
2023/04/22 09:43:00;;;;;;;;;;;;;;;51.50;29.40;100284.66;4958416;27;98113;-74
2023/04/22 09:45:27;;;;;;;;;;;;;;;51.57;29.60;100278.25;4955358;27;98294;-72
2023/04/22 09:47:53;;;;;;;;;;;;;;;51.84;29.47;100275.22;4955522;28;99860;-72
2023/04/22 09:50:20;;;;;;;;;;;;;;;51.65;29.38;100263.97;4939772;27;98573;-72
2023/04/22 09:52:57;;;;;;;;;;;;;;;51.66;29.58;100263.41;4938687;28;105695;-74
2023/04/22 09:55:24;;;;;;;;;;;;;;;51.72;29.50;100258.28;4938857;27;98089;-72
2023/04/22 09:57:54;;;;;;;;;;;;;;;51.68;29.02;100252.13;4956386;27;98496;-71
2023/04/22 10:00:25;;;;;;;;;;;;;;;51.95;28.92;100249.88;4956560;27;99269;-72
2023/04/22 10:02:52;;;;;;;;;;;;;;;52.11;28.88;100239.25;4974970;27;98746;-74
2023/04/22 10:05:18;;;;;;;;;;;;;;;52.16;29.29;100237.59;4951831;27;98000;-72
2023/04/22 10:07:44;;;;;;;;;;;;;;;52.04;28.99;100237.13;4936755;27;99585;-71
2023/04/22 10:10:10;;;;;;;;;;;;;;;52.15;28.92;100227.41;4938888;27;98155;-74
2023/04/22 10:12:36;;;;;;;;;;;;;;;52.25;29.28;100232.09;4956801;27;112126;-74
2023/04/22 10:15:05;;;;;;;;;;;;;;;52.16;29.38;100221.13;4946808;27;98931;-71
2023/04/22 10:17:32;;;;;;;;;;;;;;;52.14;29.22;100220.91;4939084;27;98034;-72
2023/04/22 10:20:03;;;;;;;;;;;;;;;52.35;29.21;100223.72;4955083;27;98074;-71
2023/04/22 10:22:30;;;;;;;;;;;;;;;52.33;29.08;100226.41;4960805;27;98140;-73
2023/04/22 10:24:57;;;;;;;;;;;;;;;52.23;29.15;100220.41;4956589;27;98149;-73
2023/04/22 10:27:23;;;;;;;;;;;;;;;52.01;29.24;100200.91;4956240;27;98262;-74
2023/04/22 10:29:49;;;;;;;;;;;;;;;51.77;29.24;100210.69;4972324;27;98627;-72
2023/04/22 10:32:18;;;;;;;;;;;;;;;51.81;29.29;100204.59;4945550;27;107933;-73
2023/04/22 10:34:47;;;;;;;;;;;;;;;51.48;29.19;100196.25;4969332;27;98338;-71
2023/04/22 10:37:13;;;;;;;;;;;;;;;51.23;29.02;100195.84;4954343;27;98444;-71
2023/04/22 10:39:41;;;;;;;;;;;;;;;51.16;29.16;100198.63;4942696;27;123438;-73
2023/04/22 10:42:09;;;;;;;;;;;;;;;51.05;28.94;100188.94;4956289;27;98434;-71
2023/04/22 10:44:53;;;;;;;;;;;;;;;51.28;28.63;100191.28;4961257;27;98182;-73
2023/04/22 10:47:27;;;;;;;;;;;;;;;51.41;28.70;100204.78;4945825;27;98766;-73
2023/04/22 10:50:16;;;;;;;;;;;;;;;51.43;28.63;100194.31;4958186;27;98061;-72
2023/04/22 10:52:45;;;;;;;;;;;;;;;51.38;28.47;100203.84;4959481;27;100465;-72
2023/04/22 10:55:11;;;;;;;;;;;;;;;51.36;28.92;100189.25;4955957;27;98739;-73
2023/04/22 10:57:40;;;;;;;;;;;;;;;51.49;28.81;100189.19;4939536;27;98319;-74
2023/04/22 11:00:38;;;;;;;;;;;;;;;51.88;28.13;100190.25;4960777;27;99307;-73
2023/04/22 11:03:09;;;;;;;;;;;;;;;51.75;28.54;100194.00;4944368;27;98294;-73
2023/04/22 11:05:37;;;;;;;;;;;;;;;51.31;29.06;100181.56;4922610;27;110524;-72
2023/04/22 11:08:19;;;;;;;;;;;;;;;51.35;28.93;100178.34;4936697;27;98022;-72
2023/04/22 11:10:47;;;;;;;;;;;;;;;51.01;28.98;100171.31;4957578;27;98530;-72
2023/04/22 11:13:18;;;;;;;;;;;;;;;50.64;29.27;100177.38;4936104;27;98678;-70
2023/04/22 11:15:45;;;;;;;;;;;;;;;50.21;29.39;100167.84;4937426;27;98256;-72
2023/04/22 11:18:20;;;;;;;;;;;;;;;49.80;29.64;100165.50;4946161;27;98983;-73
2023/04/22 11:20:48;;;;;;;;;;;;;;;49.24;30.31;100163.56;4956764;27;98673;-71
2023/04/22 11:23:18;;;;;;;;;;;;;;;48.49;30.44;100158.66;4955910;27;99343;-72
2023/04/22 11:25:44;;;;;;;;;;;;;;;47.95;30.64;100152.53;4961430;27;98872;-73
2023/04/22 11:28:10;;;;;;;;;;;;;;;47.55;31.04;100153.41;4973731;27;104081;-73
2023/04/22 11:30:36;;;;;;;;;;;;;;;47.34;30.86;100161.66;4957581;27;128804;-73
2023/04/22 11:33:02;;;;;;;;;;;;;;;47.29;30.95;100157.50;4944437;27;100222;-72
2023/04/22 11:35:32;;;;;;;;;;;;;;;47.47;30.48;100156.84;4937632;27;108894;-74
2023/04/22 11:38:00;;;;;;;;;;;;;;;47.41;30.42;100155.38;4940973;27;98452;-72
2023/04/22 11:40:30;;;;;;;;;;;;;;;47.37;30.06;100157.72;4936922;27;98025;-70
2023/04/22 11:42:57;;;;;;;;;;;;;;;47.12;30.24;100156.84;4972484;27;98424;-70
2023/04/22 11:45:24;;;;;;;;;;;;;;;46.40;30.40;100150.25;4933703;27;98027;-72
2023/04/22 11:47:50;;;;;;;;;;;;;;;45.84;30.88;100142.63;4956621;27;98379;-74
2023/04/22 11:50:17;;;;;;;;;;;;;;;45.35;31.07;100147.78;4954199;27;100038;-72
2023/04/22 11:53:02;;;;;;;;;;;;;;;44.87;31.33;100136.63;4933686;27;100239;-73
2023/04/22 11:55:40;;;;;;;;;;;;;;;44.38;31.61;100141.63;4956574;27;104321;-72
2023/04/22 11:58:16;;;;;;;;;;;;;;;43.97;31.93;100127.69;4945487;27;98257;-72
2023/04/22 12:00:50;;;;;;;;;;;;;;;43.59;31.67;100133.38;4975309;27;100805;-71
2023/04/22 12:03:16;;;;;;;;;;;;;;;43.23;32.08;100128.41;4935861;27;102436;-72
2023/04/22 12:05:51;;;;;;;;;;;;;;;42.71;31.82;100134.03;4977337;27;99016;-72
2023/04/22 12:08:19;;;;;;;;;;;;;;;42.24;31.95;100124.69;4956477;27;98688;-71
2023/04/22 12:10:49;;;;;;;;;;;;;;;42.02;32.19;100131.59;4961937;27;98402;-72
2023/04/22 12:13:19;;;;;;;;;;;;;;;41.79;32.53;100126.88;4963026;27;98306;-71
2023/04/22 12:15:47;;;;;;;;;;;;;;;41.65;32.23;100123.56;4956981;27;98362;-71
2023/04/22 12:18:14;;;;;;;;;;;;;;;41.64;32.08;100124.06;4956837;27;98805;-71
2023/04/22 12:20:41;;;;;;;;;;;;;;;41.52;32.35;100117.44;4960517;27;98001;-71
2023/04/22 12:23:17;;;;;;;;;;;;;;;41.37;32.29;100116.66;4956381;27;99430;-71
2023/04/22 12:25:44;;;;;;;;;;;;;;;41.04;32.38;100109.19;4959472;27;98692;-73
2023/04/22 12:28:11;;;;;;;;;;;;;;;40.76;32.40;100105.81;4942797;27;98386;-72
2023/04/22 12:30:38;;;;;;;;;;;;;;;40.59;32.42;100119.59;4937856;27;98183;-71
2023/04/22 12:33:05;;;;;;;;;;;;;;;40.34;32.44;100106.75;4968508;27;98670;-71